Time;durP1;ratioP1;P1;durP2;ratioP2;P2;SDS_P1;SDS_P2;PMS_P1;PMS_P2;Temp;Humidity;BMP_temperature;BMP_pressure;BME280_temperature;BME280_humidity;BME280_pressure;Samples;Min_cycle;Max_cycle;Signal;HPM_P1;HPM_P2
2022/03/30 00:00:58;;;;;;;;;;;9.10;36.60;;;7.59;39.88;100361.75;8259377;28;20445;-84
2022/03/30 00:05:20;;;;;;;;;;;9.10;36.70;;;7.49;40.51;100358.75;8273220;28;20000;-83
2022/03/30 00:09:41;;;;;;;;;;;9.10;36.70;;;7.46;40.03;100369.31;8258163;28;20379;-84
2022/03/30 00:14:03;;;;;;;;;;;9.00;36.70;;;7.36;40.18;100355.06;8268294;28;20000;-83
2022/03/30 00:18:26;;;;;;;;;;;9.00;36.80;;;7.27;40.42;100351.16;8260535;28;20446;-84
2022/03/30 00:22:47;;;;;;;;;;;8.90;36.80;;;7.25;40.22;100365.97;8281717;28;20012;-84
2022/03/30 00:27:10;;;;;;;;;;;8.80;36.70;;;7.08;40.23;100346.00;8278241;28;20008;-84
2022/03/30 00:31:32;;;;;;;;;;;8.80;36.70;;;6.92;40.19;100334.66;8282141;28;19921;-83
2022/03/30 00:35:54;;;;;;;;;;;8.70;36.70;;;6.91;40.52;100341.56;8268428;28;20008;-84
2022/03/30 00:40:16;;;;;;;;;;;8.50;36.70;;;6.81;40.13;100341.16;8281104;28;20437;-83
2022/03/30 00:44:38;;;;;;;;;;;8.50;36.70;;;6.78;40.67;100351.69;8273372;28;20004;-83
2022/03/30 00:49:01;;;;;;;;;;;8.50;36.80;;;6.71;40.10;100341.66;8268349;28;19921;-84
2022/03/30 00:53:23;;;;;;;;;;;8.40;36.80;;;6.65;40.04;100348.81;8292255;28;20000;-83
2022/03/30 00:57:46;;;;;;;;;;;8.20;36.80;;;6.68;40.33;100347.00;8270950;28;20023;-83
2022/03/30 01:02:09;;;;;;;;;;;8.20;36.90;;;6.51;40.16;100330.44;8273030;28;20023;-83
2022/03/30 01:06:31;;;;;;;;;;;8.10;36.90;;;6.40;40.16;100323.13;8263642;28;19997;-83
2022/03/30 01:10:53;;;;;;;;;;;8.10;36.90;;;6.39;40.70;100323.19;8271090;28;19926;-84
2022/03/30 01:15:15;;;;;;;;;;;8.00;36.90;;;6.46;40.26;100329.78;8264926;28;20012;-83
2022/03/30 01:19:37;;;;;;;;;;;8.10;36.90;;;6.45;40.59;100338.47;8272220;28;20004;-83
2022/03/30 01:23:59;;;;;;;;;;;8.10;37.00;;;6.42;40.93;100333.41;8264006;28;20000;-83
2022/03/30 01:28:22;;;;;;;;;;;7.90;36.90;;;5.54;40.56;100192.06;8283797;28;19952;-84
2022/03/30 01:32:45;;;;;;;;;;;8.00;36.90;;;6.30;40.58;100321.00;8259009;28;20362;-83
2022/03/30 01:37:08;;;;;;;;;;;7.90;36.90;;;6.22;40.56;100317.91;8280046;28;20035;-83
2022/03/30 01:41:30;;;;;;;;;;;7.80;36.90;;;6.23;40.45;100320.41;8263930;28;19917;-83
2022/03/30 01:45:52;;;;;;;;;;;7.80;36.90;;;6.14;40.35;100302.69;8257340;28;20000;-83
2022/03/30 01:50:14;;;;;;;;;;;7.90;37.00;;;5.99;40.81;100291.22;8263976;28;20383;-83
2022/03/30 01:54:39;;;;;;;;;;;7.80;37.00;;;6.00;40.74;100300.69;8277119;28;20015;-83
2022/03/30 01:59:01;;;;;;;;;;;7.70;36.90;;;5.92;40.48;100294.97;8268832;28;20000;-83
2022/03/30 02:03:22;;;;;;;;;;;7.60;37.00;;;5.87;40.65;100297.75;8280644;28;20007;-83
2022/03/30 02:07:44;;;;;;;;;;;7.60;37.00;;;5.83;40.69;100298.78;8267286;28;20489;-83
2022/03/30 02:12:07;;;;;;;;;;;7.60;37.00;;;5.66;41.05;100280.53;8282003;28;20534;-83
2022/03/30 02:16:28;;;;;;;;;;;7.50;37.00;;;5.70;40.76;100301.06;8270828;28;20016;-83
2022/03/30 02:20:50;;;;;;;;;;;7.40;37.00;;;5.64;40.70;100295.28;8273285;28;19924;-83
2022/03/30 02:25:12;;;;;;;;;;;7.40;37.00;;;5.46;41.16;100273.59;8281392;28;20334;-83
2022/03/30 02:29:34;;;;;;;;;;;7.30;37.00;;;5.47;40.66;100277.84;8279797;28;20290;-84
2022/03/30 02:33:56;;;;;;;;;;;7.30;37.00;;;5.47;41.23;100285.63;8279864;28;20001;-83
2022/03/30 02:38:18;;;;;;;;;;;6.90;36.90;;;5.41;41.14;100291.91;8295163;28;20358;-83
2022/03/30 02:42:40;;;;;;;;;;;7.20;37.10;;;5.24;40.95;100258.94;8283247;28;20000;-83
2022/03/30 02:47:03;;;;;;;;;;;7.10;37.10;;;5.28;40.91;100263.06;8277467;28;20008;-83
2022/03/30 02:51:27;;;;;;;;;;;7.10;37.20;;;5.31;40.80;100283.66;8270817;28;20012;-83
2022/03/30 02:55:50;;;;;;;;;;;7.10;37.20;;;5.30;40.65;100287.16;8252813;28;19918;-83
2022/03/30 03:00:12;;;;;;;;;;;7.00;37.20;;;5.11;40.81;100265.50;8265066;28;20004;-83
2022/03/30 03:04:34;;;;;;;;;;;7.00;37.20;;;5.08;40.80;100271.66;8274337;28;20499;-83
2022/03/30 03:08:57;;;;;;;;;;;6.90;37.20;;;5.19;41.16;100296.25;8261333;28;19925;-83
2022/03/30 03:13:18;;;;;;;;;;;6.90;37.30;;;5.14;41.28;100295.59;8280432;28;19996;-83
2022/03/30 03:17:40;;;;;;;;;;;6.70;37.20;;;5.10;41.29;100289.69;8259829;28;20017;-83
2022/03/30 03:22:02;;;;;;;;;;;6.80;37.30;;;5.07;40.88;100288.06;8272578;28;20015;-83
2022/03/30 03:26:24;;;;;;;;;;;6.80;37.40;;;4.95;41.24;100274.78;8266124;28;20015;-83
2022/03/30 03:30:46;;;;;;;;;;;6.60;37.30;;;4.71;40.86;100240.38;8259314;28;19948;-83
2022/03/30 03:35:09;;;;;;;;;;;6.70;37.40;;;4.83;41.22;100266.59;8268901;28;20454;-83
2022/03/30 03:39:30;;;;;;;;;;;6.70;37.40;;;4.75;41.08;100258.31;8262326;28;20008;-83
2022/03/30 03:43:52;;;;;;;;;;;6.60;37.40;;;4.73;41.36;100265.28;8278397;28;20449;-83
2022/03/30 03:48:14;;;;;;;;;;;6.60;37.40;;;4.69;41.11;100266.28;8255321;28;20326;-83
2022/03/30 03:52:36;;;;;;;;;;;6.50;37.40;;;4.61;41.37;100268.31;8288821;28;20458;-83
2022/03/30 03:56:58;;;;;;;;;;;6.40;37.40;;;4.56;41.61;100267.63;8259303;28;19917;-84
2022/03/30 04:01:20;;;;;;;;;;;6.40;37.40;;;4.31;41.34;100229.78;8267731;28;20377;-83
2022/03/30 04:05:42;;;;;;;;;;;6.40;37.40;;;4.52;41.46;100268.66;8271796;28;19930;-83
2022/03/30 04:10:05;;;;;;;;;;;6.30;37.40;;;4.55;41.18;100276.31;8285657;28;20450;-85
2022/03/30 04:14:27;;;;;;;;;;;6.30;37.50;;;4.41;41.03;100254.41;8256680;28;19928;-84
2022/03/30 04:18:50;;;;;;;;;;;6.10;37.50;;;4.53;41.07;100278.09;8256031;28;19926;-84
2022/03/30 04:23:11;;;;;;;;;;;6.20;37.50;;;4.38;41.39;100257.09;8251983;28;20017;-85
2022/03/30 04:27:33;;;;;;;;;;;6.20;37.60;;;4.31;41.29;100247.03;8243576;28;19925;-84
2022/03/30 04:31:55;;;;;;;;;;;6.40;37.60;;;4.35;41.36;100246.88;8244614;28;19945;-85
2022/03/30 04:36:17;;;;;;;;;;;6.20;37.60;;;4.39;41.52;100261.34;8269381;28;20008;-85
2022/03/30 04:40:38;;;;;;;;;;;6.20;37.60;;;4.35;41.36;100262.38;8244700;28;19918;-83
2022/03/30 04:45:00;;;;;;;;;;;6.10;37.60;;;4.33;41.62;100266.75;8266264;28;19921;-85
2022/03/30 04:49:22;;;;;;;;;;;6.20;37.60;;;4.33;41.67;100266.75;8267976;28;19937;-85
2022/03/30 04:53:44;;;;;;;;;;;6.10;37.60;;;4.29;41.71;100260.00;8275233;28;20024;-88
2022/03/30 04:58:06;;;;;;;;;;;6.10;37.60;;;4.21;41.52;100251.69;8284256;28;20004;-87
2022/03/30 05:02:28;;;;;;;;;;;6.10;37.60;;;4.34;41.50;100267.59;8264108;28;20026;-82
2022/03/30 05:06:49;;;;;;;;;;;6.10;37.60;;;4.14;41.61;100238.16;8273347;28;19917;-89
2022/03/30 05:11:11;;;;;;;;;;;6.10;37.70;;;4.26;41.55;100254.94;8287775;28;19928;-85
2022/03/30 05:15:33;;;;;;;;;;;6.10;37.80;;;4.25;41.37;100260.19;8269756;28;19924;-86
2022/03/30 05:19:55;;;;;;;;;;;6.10;37.80;;;4.08;41.59;100240.13;8268140;28;20008;-85
2022/03/30 05:24:16;;;;;;;;;;;6.10;37.70;;;4.16;41.50;100253.63;8255049;28;20437;-82
2022/03/30 05:28:40;;;;;;;;;;;6.10;38.00;;;4.19;41.35;100271.59;8281110;28;19922;-82
2022/03/30 05:33:02;;;;;;;;;;;6.00;37.90;;;4.03;41.61;100255.81;8263592;28;20338;-84
2022/03/30 05:37:24;;;;;;;;;;;6.00;37.90;;;3.95;41.57;100242.31;8280666;28;20398;-80
2022/03/30 05:41:46;;;;;;;;;;;5.80;37.80;;;4.12;41.69;100277.88;8267626;28;19924;-84
2022/03/30 05:46:08;;;;;;;;;;;5.90;38.00;;;4.08;41.72;100279.75;8252579;28;20012;-87
2022/03/30 05:50:29;;;;;;;;;;;5.90;37.90;;;3.96;42.03;100273.25;8266642;28;19921;-85
2022/03/30 05:54:51;;;;;;;;;;;5.90;37.90;;;3.94;41.82;100267.31;8274556;28;19927;-86
2022/03/30 05:59:15;;;;;;;;;;;5.90;38.00;;;3.89;42.32;100261.47;8272566;28;20012;-86
2022/03/30 06:03:37;;;;;;;;;;;5.80;37.90;;;3.95;42.00;100274.16;8261572;28;19996;-87
2022/03/30 06:07:59;;;;;;;;;;;5.80;38.10;;;3.89;42.27;100260.59;8268421;28;20000;-85
2022/03/30 06:12:24;;;;;;;;;;;5.70;38.30;;;3.98;42.36;100268.03;8268690;28;20019;-90
2022/03/30 06:16:46;;;;;;;;;;;5.90;38.70;;;4.07;42.29;100264.28;8259849;28;19917;-86
2022/03/30 06:21:09;;;;;;;;;;;5.90;38.70;;;4.10;42.02;100251.25;8255031;28;20024;-90
2022/03/30 06:25:32;;;;;;;;;;;6.00;38.60;;;4.08;42.49;100232.38;8255873;28;20000;-90
2022/03/30 06:29:53;;;;;;;;;;;6.10;38.70;;;4.29;42.32;100254.84;8266038;28;20416;-90
2022/03/30 06:34:15;;;;;;;;;;;6.10;38.80;;;4.30;42.54;100240.19;8261332;28;20473;-88
2022/03/30 06:38:37;;;;;;;;;;;6.30;38.80;;;4.52;42.80;100248.00;8251614;28;20463;-85
2022/03/30 06:43:00;;;;;;;;;;;6.50;38.90;;;4.63;42.39;100244.09;8260493;28;19922;-88
2022/03/30 06:47:22;;;;;;;;;;;6.50;39.30;;;4.73;42.73;100225.63;8272245;28;20004;-84
2022/03/30 06:51:44;;;;;;;;;;;6.70;39.40;;;4.88;42.76;100228.44;8255423;28;19925;-84
2022/03/30 06:56:05;;;;;;;;;;;6.90;39.50;;;5.02;42.60;100224.47;8280814;28;20000;-85
2022/03/30 07:00:27;;;;;;;;;;;7.00;39.40;;;5.25;42.66;100247.66;8272690;28;19944;-85
2022/03/30 07:04:49;;;;;;;;;;;7.20;39.60;;;5.39;42.71;100238.50;8251118;28;20354;-81
2022/03/30 07:13:52;;;;;;;;;;;7.50;39.70;;;5.72;43.18;100242.22;8278345;28;19928;-85
2022/03/30 07:18:14;;;;;;;;;;;7.70;38.80;;;5.86;42.80;100244.25;8267131;28;20004;-85
2022/03/30 07:22:36;;;;;;;;;;;7.80;39.30;;;5.96;43.00;100244.72;8268768;28;20445;-86
2022/03/30 07:26:58;;;;;;;;;;;7.90;39.50;;;6.16;42.70;100251.63;8267038;28;19932;-84
2022/03/30 07:31:20;;;;;;;;;;;7.90;39.10;;;6.18;43.17;100231.63;8250885;28;19932;-87
2022/03/30 07:35:46;;;;;;;;;;;8.00;39.80;;;6.32;42.63;100246.56;8263418;28;20020;-85
2022/03/30 07:40:08;;;;;;;;;;;8.30;39.70;;;6.36;42.81;100229.97;8244213;28;20008;-85
2022/03/30 07:44:31;;;;;;;;;;;8.40;39.20;;;6.52;42.53;100233.53;8256810;28;19925;-87
2022/03/30 07:48:52;;;;;;;;;;;8.50;40.10;;;6.50;43.14;100206.81;8257443;28;20004;-87
2022/03/30 07:53:14;;;;;;;;;;;8.40;39.30;;;6.59;43.20;100197.78;8262732;28;19929;-87
2022/03/30 07:57:37;;;;;;;;;;;8.70;39.60;;;6.85;42.95;100230.25;8265899;28;20000;-88
2022/03/30 08:01:59;;;;;;;;;;;8.80;39.10;;;6.98;42.86;100236.53;8273699;28;19924;-86
2022/03/30 08:06:21;;;;;;;;;;;8.90;39.10;;;7.13;43.27;100234.13;8278504;28;20442;-87
2022/03/30 08:10:43;;;;;;;;;;;9.00;39.50;;;7.22;42.79;100228.50;8265456;28;20921;-84
2022/03/30 08:15:06;;;;;;;;;;;9.20;39.50;;;7.26;42.85;100217.88;8261305;28;20012;-86
2022/03/30 08:19:28;;;;;;;;;;;9.30;39.30;;;7.35;42.93;100210.53;8257530;28;20362;-84
2022/03/30 08:23:50;;;;;;;;;;;9.40;39.00;;;7.57;42.86;100225.88;8271442;28;20655;-86
2022/03/30 08:28:12;;;;;;;;;;;9.50;38.90;;;7.52;43.00;100197.53;8262523;28;20015;-81
2022/03/30 08:32:34;;;;;;;;;;;9.60;39.00;;;6.97;42.91;100101.66;8268986;28;19925;-84
2022/03/30 08:36:55;;;;;;;;;;;9.70;39.20;;;7.69;42.89;100201.84;8271568;28;20012;-81
2022/03/30 08:41:17;;;;;;;;;;;9.70;39.10;;;7.88;43.02;100223.38;8255473;28;20286;-87
2022/03/30 08:45:40;;;;;;;;;;;9.80;39.00;;;7.98;43.14;100214.16;8271600;28;20398;-85
2022/03/30 08:50:06;;;;;;;;;;;9.90;39.00;;;8.02;42.90;100203.59;8265245;28;19922;-83
2022/03/30 08:54:28;;;;;;;;;;;10.00;39.30;;;8.09;42.90;100204.97;8257409;28;20016;-85
2022/03/30 08:59:06;;;;;;;;;;;10.10;38.90;;;8.22;42.64;100211.19;8282941;28;19923;-85
2022/03/30 09:03:28;;;;;;;;;;;10.20;38.60;;;8.45;42.87;100224.75;8272483;28;20008;-84
2022/03/30 09:07:52;;;;;;;;;;;10.20;39.10;;;8.53;42.52;100225.16;8275056;28;19996;-84
2022/03/30 09:12:15;;;;;;;;;;;10.40;38.60;;;8.52;42.99;100202.69;8279504;28;19944;-87
2022/03/30 09:16:39;;;;;;;;;;;10.50;38.70;;;8.70;42.51;100217.28;8265923;28;19917;-86
2022/03/30 09:21:01;;;;;;;;;;;10.60;38.40;;;8.71;42.63;100198.13;8265996;28;20009;-86
2022/03/30 09:25:25;;;;;;;;;;;10.70;38.40;;;8.82;42.97;100198.34;8283536;28;20290;-86
2022/03/30 09:29:47;;;;;;;;;;;10.80;38.40;;;8.92;42.60;100205.66;8263202;28;19928;-89
2022/03/30 09:34:09;;;;;;;;;;;10.80;38.30;;;8.90;42.63;100181.47;8257204;28;20247;-82
2022/03/30 09:38:36;;;;;;;;;;;10.90;38.20;;;9.15;42.29;100197.34;8272983;28;20016;-88
2022/03/30 09:43:19;;;;;;;;;;;11.00;38.20;;;9.29;42.76;100210.44;8276672;28;19924;-87
2022/03/30 09:47:41;;;;;;;;;;;11.10;38.30;;;9.16;42.67;100165.19;8265976;28;20012;-86
2022/03/30 09:52:33;;;;;;;;;;;11.20;38.20;;;9.45;42.46;100197.34;8247639;28;19921;-86
2022/03/30 09:56:55;;;;;;;;;;;11.30;38.10;;;9.56;42.60;100195.84;8267824;28;20000;-85
2022/03/30 10:01:38;;;;;;;;;;;11.40;38.10;;;9.44;42.51;100166.16;8281513;28;19923;-95
2022/03/30 10:06:42;;;;;;;;;;;11.50;37.70;;;8.89;41.97;100065.25;8263860;28;20007;-87
2022/03/30 10:11:27;;;;;;;;;;;11.60;37.30;;;9.69;42.22;100175.94;8346170;23;20459;-86
2022/03/30 10:15:50;;;;;;;;;;;11.60;37.20;;;9.55;42.05;100139.44;8277658;28;19917;-85
2022/03/30 10:20:12;;;;;;;;;;;11.70;37.00;;;9.91;42.12;100178.94;8268107;28;20376;-84
2022/03/30 10:24:43;;;;;;;;;;;11.70;36.90;;;10.02;42.46;100182.63;8283401;28;20004;-85
2022/03/30 10:29:08;;;;;;;;;;;11.80;36.30;;;10.07;42.32;100175.38;8270996;28;20009;-87
2022/03/30 10:33:41;;;;;;;;;;;11.90;37.00;;;10.08;41.87;100164.03;8270605;28;20018;-83
2022/03/30 10:38:03;;;;;;;;;;;11.90;36.90;;;10.11;41.77;100153.41;8287500;28;19917;-87
2022/03/30 10:42:24;;;;;;;;;;;11.90;36.80;;;10.28;41.80;100165.41;8281999;28;20004;-87
2022/03/30 10:47:04;;;;;;;;;;;12.00;36.70;;;10.33;41.94;100156.34;8281640;28;20020;-82
2022/03/30 10:51:26;;;;;;;;;;;12.00;35.40;;;10.32;41.72;100146.03;8265313;28;19921;-84
2022/03/30 10:55:48;;;;;;;;;;;12.20;36.50;;;10.40;41.32;100144.59;8290556;28;20019;-81
2022/03/30 11:00:22;;;;;;;;;;;12.10;37.00;;;10.37;41.90;100112.66;8302494;28;20008;-82
2022/03/30 11:04:45;;;;;;;;;;;12.30;36.60;;;10.54;41.69;100129.81;8293377;28;20009;-81
2022/03/30 11:09:07;;;;;;;;;;;12.40;36.80;;;10.69;41.56;100141.03;8292772;28;20020;-81
2022/03/30 11:13:29;;;;;;;;;;;12.40;36.80;;;10.65;41.81;100129.13;8289704;28;20012;-82
2022/03/30 11:18:00;;;;;;;;;;;12.50;36.30;;;10.76;41.50;100148.38;8287697;28;19925;-82
2022/03/30 11:22:28;;;;;;;;;;;12.60;36.80;;;10.76;41.82;100131.88;8291138;28;20008;-82
2022/03/30 11:26:50;;;;;;;;;;;12.60;36.90;;;10.82;41.30;100139.28;8277945;28;19924;-82
2022/03/30 11:31:24;;;;;;;;;;;12.50;36.60;;;10.73;42.14;100108.56;8291102;28;19922;-82
2022/03/30 11:35:48;;;;;;;;;;;12.60;36.90;;;10.71;41.44;100095.59;8287375;28;20008;-82
2022/03/30 11:40:11;;;;;;;;;;;12.40;36.90;;;10.89;41.46;100098.78;8292743;28;19924;-82
2022/03/30 11:49:17;;;;;;;;;;;12.80;36.90;;;10.96;41.68;100092.19;8296072;28;20091;-82
2022/03/30 11:53:39;;;;;;;;;;;12.80;37.10;;;11.08;41.19;100107.06;8300569;28;20020;-82
2022/03/30 11:58:02;;;;;;;;;;;12.80;36.90;;;11.17;41.48;100110.00;8277965;28;19924;-82
2022/03/30 12:02:29;;;;;;;;;;;12.90;36.30;;;11.15;41.33;100102.28;8287049;28;20020;-82
2022/03/30 12:06:51;;;;;;;;;;;12.90;36.60;;;11.18;41.07;100096.81;8292979;28;20020;-82
2022/03/30 12:11:13;;;;;;;;;;;12.90;36.60;;;11.25;41.42;100097.25;8292799;28;20405;-83
2022/03/30 12:15:36;;;;;;;;;;;13.00;36.70;;;11.20;41.02;100073.19;8280452;28;20017;-82
2022/03/30 12:19:58;;;;;;;;;;;13.10;36.70;;;11.24;41.71;100061.59;8296529;28;19941;-82
2022/03/30 12:24:22;;;;;;;;;;;13.10;35.50;;;11.34;41.29;100073.09;8290073;28;19917;-82
2022/03/30 12:28:44;;;;;;;;;;;13.10;35.80;;;11.41;41.36;100076.94;8281601;28;19928;-82
2022/03/30 12:33:06;;;;;;;;;;;13.10;35.60;;;11.42;41.45;100059.47;8294555;28;19945;-82
2022/03/30 12:37:27;;;;;;;;;;;13.20;35.80;;;11.48;41.54;100054.66;8285655;28;20024;-82
2022/03/30 12:42:00;;;;;;;;;;;13.30;35.70;;;11.66;41.33;100075.22;8287922;28;19924;-81
2022/03/30 12:46:22;;;;;;;;;;;13.30;34.90;;;11.53;40.79;100064.81;8298581;28;19924;-82
2022/03/30 12:50:43;;;;;;;;;;;13.30;35.40;;;11.58;40.78;100062.69;8290761;28;19929;-82
2022/03/30 12:55:14;;;;;;;;;;;13.30;36.10;;;11.62;41.38;100052.88;8291342;28;19917;-82
2022/03/30 12:59:38;;;;;;;;;;;13.40;36.20;;;11.60;41.17;100046.91;8293647;28;20036;-82
2022/03/30 13:04:21;;;;;;;;;;;13.40;36.20;;;11.74;41.27;100052.00;8274828;28;19921;-83
2022/03/30 13:08:42;;;;;;;;;;;13.50;36.30;;;11.75;40.86;100043.22;8291195;28;20008;-83
2022/03/30 13:13:04;;;;;;;;;;;13.50;35.50;;;11.69;40.41;100039.25;8277829;28;19932;-83
2022/03/30 13:17:25;;;;;;;;;;;13.50;35.80;;;11.84;41.12;100057.41;8296179;28;19918;-82
2022/03/30 13:21:47;;;;;;;;;;;13.50;35.40;;;11.77;40.73;100037.84;8280953;28;19924;-83
2022/03/30 13:26:35;;;;;;;;;;;13.40;35.90;;;11.75;40.67;100027.53;8299840;28;19917;-84
2022/03/30 13:30:58;;;;;;;;;;;13.50;35.60;;;11.74;41.13;100033.69;8282801;28;19936;-83
2022/03/30 13:35:20;;;;;;;;;;;13.50;34.60;;;11.76;40.52;100039.63;8281590;28;20008;-82
2022/03/30 13:39:42;;;;;;;;;;;13.50;34.60;;;11.69;40.35;100041.00;8276402;28;20055;-82
2022/03/30 13:44:05;;;;;;;;;;;13.40;35.30;;;11.61;40.44;100019.78;8299809;28;20036;-85
2022/03/30 13:48:27;;;;;;;;;;;13.60;35.70;;;11.57;40.71;100011.34;8251177;28;19921;-81
2022/03/30 13:52:48;;;;;;;;;;;13.40;35.70;;;11.62;40.70;100017.09;8262975;28;19925;-82
2022/03/30 13:57:10;;;;;;;;;;;13.40;35.80;;;11.63;40.91;100010.91;8273139;28;19928;-83
2022/03/30 14:01:32;;;;;;;;;;;13.40;35.30;;;11.47;40.71;99978.94;8259304;28;19921;-82
2022/03/30 14:05:54;;;;;;;;;;;13.30;35.20;;;11.50;40.89;99991.78;8243590;28;19925;-82
2022/03/30 14:10:16;;;;;;;;;;;13.30;35.30;;;11.18;40.63;99939.16;8258905;28;19932;-82
2022/03/30 14:14:37;;;;;;;;;;;13.30;35.80;;;11.69;40.57;100014.84;8277042;28;19925;-81
2022/03/30 14:19:02;;;;;;;;;;;13.30;35.60;;;11.67;40.09;100025.44;8269807;28;20679;-82
2022/03/30 14:23:23;;;;;;;;;;;13.30;35.50;;;11.58;40.41;100001.72;8257319;28;19928;-81
2022/03/30 14:27:45;;;;;;;;;;;13.30;35.60;;;11.55;40.37;99984.47;8270163;28;19928;-82
2022/03/30 14:32:07;;;;;;;;;;;13.30;35.20;;;11.50;40.30;99976.97;8269917;28;19925;-82
2022/03/30 14:36:29;;;;;;;;;;;13.30;35.40;;;11.69;40.34;100001.78;8249191;28;19921;-82
2022/03/30 14:40:51;;;;;;;;;;;13.30;35.20;;;11.50;40.22;99974.34;8260611;28;19922;-81
2022/03/30 14:45:14;;;;;;;;;;;13.30;35.50;;;11.64;40.49;99991.66;8267841;28;19921;-81
2022/03/30 14:49:36;;;;;;;;;;;13.30;35.90;;;11.72;40.21;99993.75;8252948;28;19924;-80
2022/03/30 14:53:58;;;;;;;;;;;13.30;36.00;;;11.74;40.53;99992.66;8255987;28;19963;-79
2022/03/30 14:58:20;;;;;;;;;;;13.40;35.70;;;11.72;40.70;99985.91;8280524;28;19921;-81
2022/03/30 15:02:41;;;;;;;;;;;13.40;35.30;;;11.77;40.35;99988.97;8264002;28;19925;-81
2022/03/30 15:07:03;;;;;;;;;;;13.40;35.60;;;11.74;40.33;99971.72;8286260;28;19927;-82
2022/03/30 15:11:25;;;;;;;;;;;13.40;35.10;;;11.67;40.25;99969.69;8276457;28;19922;-82
2022/03/30 15:15:47;;;;;;;;;;;13.40;35.60;;;11.61;40.33;99960.50;8258924;28;19951;-82
2022/03/30 15:20:11;;;;;;;;;;;13.40;35.50;;;11.69;40.13;99975.63;8257143;28;20411;-82
2022/03/30 15:24:34;;;;;;;;;;;13.40;35.70;;;11.62;40.38;99962.16;8248039;28;19936;-82
2022/03/30 15:29:01;;;;;;;;;;;13.30;35.50;;;11.40;40.37;99920.22;8264910;28;20330;-81
2022/03/30 15:33:22;;;;;;;;;;;13.30;35.80;;;11.69;39.86;99971.25;8254445;28;19929;-82
2022/03/30 15:37:46;;;;;;;;;;;13.30;35.70;;;11.53;40.31;99944.53;8254195;28;20408;-82
2022/03/30 15:42:07;;;;;;;;;;;13.30;35.20;;;11.66;39.72;99968.00;8268841;28;19928;-82
2022/03/30 15:46:29;;;;;;;;;;;13.20;35.80;;;11.39;40.02;99918.53;8256599;28;19928;-82
2022/03/30 15:50:51;;;;;;;;;;;13.30;35.40;;;11.73;40.36;99975.31;8276569;28;19932;-81
2022/03/30 15:55:13;;;;;;;;;;;13.30;35.60;;;11.60;39.68;99958.00;8267894;28;20626;-81
2022/03/30 15:59:35;;;;;;;;;;;13.30;34.90;;;11.54;39.74;99955.81;8259279;28;19926;-82
2022/03/30 16:03:57;;;;;;;;;;;13.30;35.40;;;11.58;39.65;99968.56;8259129;28;19921;-82
2022/03/30 16:12:59;;;;;;;;;;;13.20;35.60;;;11.49;39.93;99956.97;8261291;28;19926;-82
2022/03/30 16:17:21;;;;;;;;;;;13.10;35.50;;;11.52;39.72;99963.78;8254075;28;19943;-80
2022/03/30 16:21:44;;;;;;;;;;;13.20;35.70;;;11.45;40.40;99942.47;8258037;28;19928;-82
2022/03/30 16:26:07;;;;;;;;;;;13.20;35.60;;;11.54;39.77;99961.06;8258611;28;20394;-83
2022/03/30 16:30:28;;;;;;;;;;;13.20;35.80;;;11.48;39.60;99963.16;8272681;28;19921;-83
2022/03/30 16:34:51;;;;;;;;;;;13.10;35.60;;;11.40;39.88;99970.72;8267225;28;19921;-82
2022/03/30 16:39:12;;;;;;;;;;;13.10;34.90;;;11.40;39.77;99986.41;8262998;28;20306;-82
2022/03/30 16:43:34;;;;;;;;;;;13.10;35.40;;;11.25;40.08;99961.31;8273156;28;19928;-82
2022/03/30 16:47:57;;;;;;;;;;;13.00;34.90;;;11.26;39.68;99978.66;8253008;28;19921;-82
2022/03/30 16:52:19;;;;;;;;;;;12.90;35.10;;;11.13;39.56;99962.22;8267007;28;19926;-82
2022/03/30 16:56:41;;;;;;;;;;;12.80;34.70;;;11.25;39.47;99990.06;8266884;28;19928;-82
2022/03/30 17:01:02;;;;;;;;;;;12.90;35.30;;;11.15;39.92;99986.44;8263047;28;19921;-82
2022/03/30 17:05:24;;;;;;;;;;;12.70;34.70;;;11.08;39.50;99986.88;8259047;28;19928;-82
2022/03/30 17:10:00;;;;;;;;;;;12.80;34.80;;;11.12;39.89;100003.16;8261167;28;19928;-82
2022/03/30 17:14:22;;;;;;;;;;;12.60;34.60;;;10.88;40.19;99984.78;8272008;28;19932;-82
2022/03/30 17:18:44;;;;;;;;;;;12.70;34.20;;;10.82;39.87;99995.66;8253688;28;20432;-81
2022/03/30 17:23:09;;;;;;;;;;;12.50;33.10;;;10.67;39.59;99997.53;8270532;28;20294;-82
2022/03/30 17:27:30;;;;;;;;;;;12.40;33.30;;;10.63;39.60;100009.09;8260748;28;19925;-82
2022/03/30 17:31:55;;;;;;;;;;;12.30;34.30;;;10.43;39.79;99994.78;8251929;28;19931;-82
2022/03/30 17:36:17;;;;;;;;;;;12.20;34.30;;;10.41;39.17;100005.31;8260759;28;20148;-82
2022/03/30 17:40:39;;;;;;;;;;;12.10;33.80;;;10.42;38.97;100021.81;8279284;28;19925;-81
2022/03/30 17:45:01;;;;;;;;;;;12.00;34.00;;;10.30;39.12;100035.69;8255151;28;19921;-83
2022/03/30 17:54:03;;;;;;;;;;;11.90;33.50;;;10.11;39.93;100025.56;8285914;28;19925;-78
2022/03/30 17:58:26;;;;;;;;;;;11.80;33.80;;;10.04;39.19;100040.75;8257799;28;19921;-80
2022/03/30 18:02:50;;;;;;;;;;;11.50;33.70;;;9.86;39.49;100026.31;8272702;28;19948;-81
2022/03/30 18:07:12;;;;;;;;;;;11.60;33.90;;;9.92;39.33;100045.00;8271055;28;19925;-81
2022/03/30 18:11:35;;;;;;;;;;;11.50;34.50;;;9.76;39.51;100026.03;8268282;28;19926;-81
2022/03/30 18:15:57;;;;;;;;;;;11.30;34.60;;;9.84;39.72;100054.25;8256466;28;19922;-81
2022/03/30 18:20:18;;;;;;;;;;;11.50;34.80;;;9.78;39.48;100041.59;8267393;28;19921;-81
2022/03/30 18:24:40;;;;;;;;;;;11.40;34.70;;;9.68;39.17;100049.97;8266273;28;19972;-81
2022/03/30 18:29:02;;;;;;;;;;;11.40;35.20;;;9.60;39.61;100033.97;8259266;28;19927;-80
2022/03/30 18:33:24;;;;;;;;;;;11.20;34.30;;;9.50;39.23;100035.47;8253523;28;19931;-81
2022/03/30 18:37:49;;;;;;;;;;;11.30;34.80;;;9.54;39.57;100052.59;8254823;28;21514;-81
2022/03/30 18:42:11;;;;;;;;;;;11.20;34.80;;;9.30;39.47;100024.50;8259818;28;19932;-80
2022/03/30 18:46:32;;;;;;;;;;;11.10;35.00;;;9.37;39.24;100044.97;8244220;28;19925;-81
2022/03/30 18:50:54;;;;;;;;;;;11.00;34.90;;;9.48;39.02;100064.25;8271198;28;19929;-80
2022/03/30 18:55:15;;;;;;;;;;;11.00;35.10;;;9.34;39.28;100042.56;8246237;28;19925;-81
2022/03/30 18:59:39;;;;;;;;;;;11.00;35.10;;;9.46;39.52;100062.66;8271882;28;19928;-81
2022/03/30 19:04:02;;;;;;;;;;;11.10;35.00;;;9.47;39.51;100066.94;8252484;28;19929;-81
2022/03/30 19:08:23;;;;;;;;;;;11.00;35.20;;;9.52;39.62;100078.75;8249175;28;19921;-81
2022/03/30 19:12:45;;;;;;;;;;;11.10;35.30;;;9.42;39.31;100055.97;8268696;28;19926;-81
2022/03/30 19:17:07;;;;;;;;;;;11.00;35.30;;;9.42;39.43;100061.16;8264534;28;19925;-80
2022/03/30 19:21:28;;;;;;;;;;;11.10;35.30;;;9.47;39.39;100069.53;8250521;28;19922;-81
2022/03/30 19:25:50;;;;;;;;;;;11.00;35.20;;;9.43;39.24;100062.88;8263086;28;19928;-81
2022/03/30 19:30:12;;;;;;;;;;;11.10;35.30;;;9.45;39.32;100074.88;8251524;28;20402;-81
2022/03/30 19:34:34;;;;;;;;;;;11.10;35.40;;;9.33;39.52;100062.56;8262833;28;19925;-81
2022/03/30 19:38:56;;;;;;;;;;;11.00;35.40;;;9.26;39.20;100058.66;8292434;28;19927;-81
2022/03/30 19:43:17;;;;;;;;;;;11.00;35.40;;;9.26;39.52;100059.50;8280194;28;20461;-81
2022/03/30 19:47:43;;;;;;;;;;;10.90;35.30;;;9.12;39.68;100059.50;8259171;28;19939;-81
2022/03/30 19:52:07;;;;;;;;;;;10.90;35.30;;;9.07;39.33;100064.13;8280022;28;20350;-81
2022/03/30 19:56:32;;;;;;;;;;;10.90;35.30;;;9.08;39.55;100078.84;8256154;28;19922;-81
2022/03/30 20:00:53;;;;;;;;;;;10.80;35.30;;;9.02;39.61;100071.41;8267148;28;20477;-81
2022/03/30 20:05:18;;;;;;;;;;;10.70;35.20;;;8.80;39.28;100041.44;8251033;28;20670;-81
2022/03/30 20:09:40;;;;;;;;;;;10.60;35.30;;;8.71;39.68;100036.75;8260507;28;20003;-81
2022/03/30 20:14:03;;;;;;;;;;;10.50;35.30;;;8.85;39.27;100065.41;8263999;28;19922;-81
2022/03/30 20:18:30;;;;;;;;;;;10.60;35.30;;;8.90;39.26;100080.75;8266955;28;19917;-80
2022/03/30 20:22:52;;;;;;;;;;;10.50;35.20;;;8.79;39.50;100076.19;8272869;28;19927;-81
2022/03/30 20:27:14;;;;;;;;;;;10.50;35.30;;;8.75;39.15;100084.25;8270619;28;19917;-81
2022/03/30 20:31:36;;;;;;;;;;;10.30;35.30;;;8.59;39.53;100077.34;8260188;28;19940;-80